createdAt,value
2017-08-18T00:01:26.427Z,19.70
2017-08-18T00:03:53.944Z,19.60
2017-08-18T00:06:21.472Z,19.40
2017-08-18T00:08:49.025Z,19.50
2017-08-18T00:11:16.586Z,19.70
2017-08-18T00:13:44.116Z,19.50
2017-08-18T00:16:11.643Z,19.50
2017-08-18T00:18:39.207Z,19.50
2017-08-18T00:21:06.729Z,19.30
2017-08-18T00:23:34.249Z,19.30
2017-08-18T00:26:01.804Z,19.40
2017-08-18T00:28:29.328Z,19.50
2017-08-18T00:30:56.897Z,19.50
2017-08-18T00:34:02.967Z,19.40
2017-08-18T00:36:30.517Z,19.30
2017-08-18T00:38:58.063Z,19.30
2017-08-18T00:41:25.632Z,19.40
2017-08-18T00:43:53.149Z,19.40
2017-08-18T00:46:20.733Z,19.50
2017-08-18T00:48:49.043Z,19.50
2017-08-18T00:51:16.653Z,19.40
2017-08-18T00:53:44.168Z,19.40
2017-08-18T00:56:11.720Z,19.30
2017-08-18T00:58:39.228Z,19.30
2017-08-18T01:01:06.745Z,19.20
2017-08-18T01:03:34.284Z,19.00
2017-08-18T01:06:01.825Z,19.10
2017-08-18T01:08:29.328Z,19.10
2017-08-18T01:10:56.840Z,19.10
2017-08-18T01:13:25.177Z,19.10
2017-08-18T01:15:52.703Z,19.00
2017-08-18T01:18:20.248Z,19.20
2017-08-18T01:20:48.571Z,19.30
2017-08-18T01:23:16.083Z,19.20
2017-08-18T01:25:44.388Z,19.10
2017-08-18T01:28:11.928Z,19.10
2017-08-18T01:30:39.506Z,19.00
2017-08-18T01:33:07.041Z,19.00
2017-08-18T01:35:35.311Z,18.80
2017-08-18T01:38:02.897Z,18.70
2017-08-18T01:40:30.417Z,18.90
2017-08-18T01:42:57.956Z,18.90
2017-08-18T01:45:25.455Z,18.80
2017-08-18T01:47:53.773Z,18.70
2017-08-18T01:50:21.300Z,18.70
2017-08-18T01:52:48.859Z,18.70
2017-08-18T01:55:17.143Z,18.60
2017-08-18T01:57:44.691Z,18.60
2017-08-18T02:00:13.001Z,19.00
2017-08-18T02:02:40.539Z,19.00
2017-08-18T02:05:08.081Z,19.00
2017-08-18T02:07:35.629Z,18.90
2017-08-18T02:10:03.955Z,19.00
2017-08-18T02:12:31.496Z,18.90
2017-08-18T02:14:59.797Z,19.10
2017-08-18T02:17:27.378Z,19.00
2017-08-18T02:19:54.899Z,19.00
2017-08-18T02:22:22.446Z,19.00
2017-08-18T02:24:50.783Z,19.00
2017-08-18T02:27:18.286Z,19.00
2017-08-18T02:29:46.568Z,19.20
2017-08-18T02:32:14.127Z,19.20
2017-08-18T02:34:42.561Z,19.20
2017-08-18T02:37:10.100Z,19.20
2017-08-18T02:39:37.610Z,19.10
2017-08-18T02:42:05.934Z,19.10
2017-08-18T02:44:33.471Z,19.00
2017-08-18T02:47:01.033Z,19.00
2017-08-18T02:49:28.584Z,18.90
2017-08-18T02:51:56.901Z,18.70
2017-08-18T02:54:24.474Z,18.70
2017-08-18T02:56:51.979Z,18.80
2017-08-18T02:59:20.265Z,18.80
2017-08-18T03:01:47.809Z,18.80
2017-08-18T03:04:16.216Z,18.70
2017-08-18T03:06:43.739Z,18.70
2017-08-18T03:09:11.292Z,18.80
2017-08-18T03:11:38.808Z,18.60
2017-08-18T03:14:06.323Z,18.60
2017-08-18T03:16:33.867Z,18.70
2017-08-18T03:19:01.405Z,18.60
2017-08-18T03:21:28.956Z,18.70
2017-08-18T03:23:56.501Z,18.60
2017-08-18T03:26:24.575Z,18.40
2017-08-18T03:28:52.122Z,18.50
2017-08-18T03:31:19.630Z,18.50
2017-08-18T03:33:47.152Z,18.40
2017-08-18T03:36:14.675Z,18.40
2017-08-18T03:38:43.025Z,18.60
2017-08-18T03:41:10.575Z,18.50
2017-08-18T03:43:38.088Z,18.50
2017-08-18T03:46:06.376Z,18.20
2017-08-18T03:48:33.936Z,18.20
2017-08-18T03:51:01.465Z,18.10
2017-08-18T03:53:28.983Z,18.20
2017-08-18T03:55:56.537Z,18.30
2017-08-18T03:58:24.049Z,18.40
2017-08-18T04:00:51.602Z,18.30
2017-08-18T04:03:19.151Z,18.20
2017-08-18T04:05:46.656Z,18.20
2017-08-18T04:08:14.176Z,18.20
2017-08-18T04:10:41.765Z,18.30
2017-08-18T04:13:10.058Z,18.10
2017-08-18T04:15:37.580Z,18.10
2017-08-18T04:18:05.116Z,18.30
2017-08-18T04:20:32.642Z,18.50
2017-08-18T04:23:00.164Z,18.40
2017-08-18T04:25:27.683Z,18.50
2017-08-18T04:27:55.247Z,18.40
2017-08-18T04:30:22.796Z,18.40
2017-08-18T04:32:50.340Z,18.30
2017-08-18T04:35:17.897Z,18.40
2017-08-18T04:37:45.410Z,18.40
2017-08-18T04:40:12.952Z,18.40
2017-08-18T04:42:40.503Z,18.50
2017-08-18T04:45:08.023Z,18.60
2017-08-18T04:47:35.602Z,18.60
2017-08-18T04:50:03.212Z,18.70
2017-08-18T04:52:30.732Z,18.80
2017-08-18T04:54:58.243Z,18.80
2017-08-18T04:57:25.786Z,18.80
2017-08-18T04:59:53.308Z,18.90
2017-08-18T05:02:20.857Z,19.00
2017-08-18T05:04:48.416Z,19.10
2017-08-18T05:07:15.940Z,19.30
2017-08-18T05:09:43.464Z,19.30
2017-08-18T05:12:11.003Z,19.10
2017-08-18T05:14:38.522Z,19.10
2017-08-18T05:17:06.081Z,19.00
2017-08-18T05:19:34.381Z,19.10
2017-08-18T05:22:01.891Z,19.00
2017-08-18T05:24:29.442Z,19.20
2017-08-18T05:26:57.030Z,19.20
2017-08-18T05:29:24.584Z,19.30
2017-08-18T05:31:52.097Z,19.50
2017-08-18T05:34:19.615Z,19.60
2017-08-18T05:36:47.174Z,20.00
2017-08-18T05:39:14.688Z,20.20
2017-08-18T05:41:42.249Z,20.10
2017-08-18T05:44:09.776Z,20.10
2017-08-18T05:46:37.300Z,20.30
2017-08-18T05:49:04.893Z,20.40
2017-08-18T05:51:33.233Z,20.40
2017-08-18T05:54:00.893Z,20.40
2017-08-18T05:56:28.416Z,20.60
2017-08-18T05:58:55.964Z,20.70
2017-08-18T06:01:23.513Z,20.90
2017-08-18T06:03:51.820Z,21.10
2017-08-18T06:06:19.374Z,21.10
2017-08-18T06:08:46.910Z,21.20
2017-08-18T06:11:15.184Z,21.40
2017-08-18T06:13:43.524Z,21.70
2017-08-18T06:16:11.035Z,21.60
2017-08-18T06:18:39.310Z,22.10
2017-08-18T06:21:07.617Z,22.20
2017-08-18T06:23:35.147Z,22.20
2017-08-18T06:26:03.472Z,22.60
2017-08-18T06:28:30.975Z,22.50
2017-08-18T06:30:59.247Z,23.00
2017-08-18T06:33:26.800Z,22.90
2017-08-18T06:35:55.087Z,23.30
2017-08-18T06:38:23.393Z,23.30
2017-08-18T06:40:50.940Z,23.30
2017-08-18T06:43:19.212Z,23.50
2017-08-18T06:45:47.563Z,23.60
2017-08-18T06:48:15.067Z,23.60
2017-08-18T06:50:42.573Z,23.70
2017-08-18T06:53:10.137Z,24.00
2017-08-18T06:55:37.647Z,24.30
2017-08-18T06:58:05.147Z,24.40
2017-08-18T07:00:32.739Z,24.60
2017-08-18T07:03:00.301Z,24.90
2017-08-18T07:05:28.632Z,25.10
2017-08-18T07:07:56.144Z,25.10
2017-08-18T07:10:24.425Z,25.60
2017-08-18T07:12:51.974Z,25.50
2017-08-18T07:15:19.511Z,25.60
2017-08-18T07:17:47.025Z,25.60
2017-08-18T07:20:14.619Z,25.60
2017-08-18T07:22:42.133Z,25.50
2017-08-18T07:25:09.680Z,25.20
2017-08-18T07:27:37.189Z,25.10
2017-08-18T07:30:04.693Z,25.20
2017-08-18T07:32:33.011Z,25.70
2017-08-18T07:35:00.539Z,25.70
2017-08-18T07:37:30.554Z,26.20
2017-08-18T07:39:58.855Z,26.60
2017-08-18T07:42:26.596Z,26.50
2017-08-18T07:44:54.875Z,27.20
2017-08-18T07:47:22.400Z,27.10
2017-08-18T07:49:50.011Z,27.30
2017-08-18T07:52:17.576Z,27.50
2017-08-18T07:54:45.116Z,27.20
2017-08-18T07:57:12.623Z,27.30
2017-08-18T07:59:40.162Z,27.60
2017-08-18T08:02:07.703Z,28.00
2017-08-18T08:04:35.983Z,28.20
2017-08-18T08:07:04.304Z,28.40
2017-08-18T08:09:31.808Z,28.30
2017-08-18T08:11:59.327Z,28.40
2017-08-18T08:14:26.901Z,28.40
2017-08-18T08:16:54.412Z,28.60
2017-08-18T08:19:21.925Z,28.70
2017-08-18T08:21:49.487Z,28.80
2017-08-18T08:24:16.993Z,29.00
2017-08-18T08:26:44.520Z,28.80
2017-08-18T08:29:12.060Z,29.00
2017-08-18T08:31:39.624Z,28.90
2017-08-18T08:34:07.132Z,28.90
2017-08-18T08:36:34.633Z,29.10
2017-08-18T08:39:02.180Z,29.10
2017-08-18T08:41:29.678Z,28.90
2017-08-18T08:43:57.227Z,28.70
2017-08-18T08:46:25.504Z,28.70
2017-08-18T08:48:53.017Z,28.70
2017-08-18T08:51:20.551Z,28.60
2017-08-18T08:53:48.859Z,28.60
2017-08-18T08:56:16.408Z,28.60
2017-08-18T08:58:43.907Z,29.20
2017-08-18T09:01:11.458Z,29.60
2017-08-18T09:03:38.958Z,29.80
2017-08-18T09:06:07.281Z,29.70
2017-08-18T09:08:34.800Z,29.60
2017-08-18T09:11:02.353Z,29.90
2017-08-18T09:13:30.659Z,30.20
2017-08-18T09:15:58.164Z,30.10
2017-08-18T09:18:25.712Z,30.00
2017-08-18T09:20:53.228Z,30.10
2017-08-18T09:23:20.802Z,30.10
2017-08-18T09:25:48.363Z,30.10
2017-08-18T09:28:15.867Z,30.20
2017-08-18T09:30:43.404Z,30.20
2017-08-18T09:33:10.907Z,30.10
2017-08-18T09:35:39.231Z,30.00
2017-08-18T09:38:06.751Z,29.90
2017-08-18T09:40:35.255Z,30.70
2017-08-18T09:43:02.817Z,30.70
2017-08-18T09:45:30.332Z,30.90
2017-08-18T09:48:09.700Z,31.10
2017-08-18T09:50:49.196Z,31.40
2017-08-18T09:53:28.527Z,31.60
2017-08-18T09:56:07.812Z,31.70
2017-08-18T09:58:47.011Z,31.50
2017-08-18T10:01:14.555Z,31.50
2017-08-18T10:03:42.080Z,31.40
2017-08-18T10:06:09.616Z,31.30
2017-08-18T10:08:37.165Z,31.40
2017-08-18T10:11:04.674Z,31.40
2017-08-18T10:13:32.187Z,31.70
2017-08-18T10:16:00.494Z,32.10
2017-08-18T10:18:28.016Z,32.10
2017-08-18T10:20:55.568Z,32.20
2017-08-18T10:23:23.116Z,32.30
2017-08-18T10:25:50.620Z,32.50
2017-08-18T10:28:18.127Z,32.80
2017-08-18T10:30:45.663Z,32.50
2017-08-18T10:33:13.167Z,32.30
2017-08-18T10:35:40.712Z,32.10
2017-08-18T10:38:08.227Z,32.30
2017-08-18T10:40:35.731Z,32.50
2017-08-18T10:43:03.285Z,32.80
2017-08-18T10:45:30.796Z,32.90
2017-08-18T10:47:58.300Z,32.90
2017-08-18T10:50:25.847Z,32.40
2017-08-18T10:52:53.355Z,32.00
2017-08-18T10:55:20.868Z,31.60
2017-08-18T10:57:48.426Z,31.60
2017-08-18T11:00:15.936Z,31.70
2017-08-18T11:02:43.440Z,31.70
2017-08-18T11:05:10.978Z,31.40
2017-08-18T11:07:38.488Z,31.20
2017-08-18T11:10:06.016Z,31.20
2017-08-18T11:12:33.552Z,31.30
2017-08-18T11:15:01.067Z,31.30
2017-08-18T11:17:28.649Z,31.40
2017-08-18T11:19:56.156Z,31.70
2017-08-18T11:22:23.658Z,32.40
2017-08-18T11:24:51.195Z,33.10
2017-08-18T11:27:18.695Z,33.20
2017-08-18T11:29:46.252Z,33.20
2017-08-18T11:32:13.760Z,33.20
2017-08-18T11:34:41.277Z,33.50
2017-08-18T11:37:09.599Z,34.00
2017-08-18T11:39:37.108Z,33.90
2017-08-18T11:42:04.616Z,33.90
2017-08-18T11:44:32.155Z,34.20
2017-08-18T11:46:59.663Z,34.40
2017-08-18T11:49:27.207Z,34.10
2017-08-18T11:51:54.768Z,33.90
2017-08-18T11:54:22.342Z,33.70
2017-08-18T11:56:49.852Z,33.30
2017-08-18T11:59:17.500Z,33.40
2017-08-18T12:01:45.772Z,33.30
2017-08-18T12:04:14.092Z,33.50
2017-08-18T12:06:41.632Z,33.40
2017-08-18T12:09:09.143Z,33.80
2017-08-18T12:11:36.712Z,34.00
2017-08-18T12:14:04.613Z,34.00
2017-08-18T12:16:32.123Z,33.80
2017-08-18T12:18:59.676Z,33.80
2017-08-18T12:21:27.192Z,34.00
2017-08-18T12:23:54.746Z,33.90
2017-08-18T12:26:22.257Z,33.70
2017-08-18T12:28:49.780Z,33.50
2017-08-18T12:31:17.326Z,33.00
2017-08-18T12:33:46.570Z,32.70
2017-08-18T12:36:14.083Z,32.60
2017-08-18T12:38:41.623Z,32.40
2017-08-18T12:41:09.168Z,32.10
2017-08-18T12:43:36.758Z,32.30
2017-08-18T12:46:04.268Z,32.50
2017-08-18T12:48:31.817Z,32.40
2017-08-18T12:50:59.367Z,32.60
2017-08-18T12:53:26.936Z,32.90
2017-08-18T12:55:54.444Z,32.80
2017-08-18T12:58:21.954Z,32.30
2017-08-18T13:00:49.504Z,31.90
2017-08-18T13:03:17.043Z,31.70
2017-08-18T13:05:45.311Z,31.40
2017-08-18T13:08:13.686Z,31.40
2017-08-18T13:10:41.197Z,31.30
2017-08-18T13:13:08.699Z,31.20
2017-08-18T13:15:36.272Z,31.10
2017-08-18T13:18:04.544Z,31.00
2017-08-18T13:20:32.055Z,30.90
2017-08-18T13:22:59.603Z,31.00
2017-08-18T13:25:27.119Z,30.80
2017-08-18T13:27:54.693Z,30.90
2017-08-18T13:30:23.012Z,30.80
2017-08-18T13:32:50.571Z,30.80
2017-08-18T13:35:18.113Z,30.60
2017-08-18T13:37:45.655Z,30.50
2017-08-18T13:40:13.948Z,30.40
2017-08-18T13:42:41.468Z,30.30
2017-08-18T13:45:09.003Z,30.20
2017-08-18T13:47:36.538Z,30.20
2017-08-18T13:50:04.064Z,30.20
2017-08-18T13:52:31.631Z,30.10
2017-08-18T13:54:59.183Z,30.30
2017-08-18T13:57:27.457Z,30.20
2017-08-18T13:59:55.003Z,30.20
2017-08-18T14:02:22.564Z,30.00
2017-08-18T14:04:50.072Z,30.00
2017-08-18T14:07:17.579Z,30.00
2017-08-18T14:09:45.122Z,30.00
2017-08-18T14:12:12.635Z,29.80
2017-08-18T14:14:40.191Z,29.70
2017-08-18T14:17:08.464Z,29.70
2017-08-18T14:19:36.735Z,29.80
2017-08-18T14:22:05.056Z,29.90
2017-08-18T14:24:32.611Z,29.80
2017-08-18T14:27:05.798Z,29.80
2017-08-18T14:29:33.344Z,29.70
2017-08-18T14:32:00.947Z,29.70
2017-08-18T14:34:28.656Z,29.70
2017-08-18T14:36:56.952Z,29.90
2017-08-18T14:39:24.494Z,29.80
2017-08-18T14:41:52.797Z,29.60
2017-08-18T14:44:20.459Z,29.60
2017-08-18T14:46:47.975Z,29.70
2017-08-18T14:49:15.485Z,29.60
2017-08-18T14:51:43.034Z,29.60
2017-08-18T14:54:10.589Z,29.70
2017-08-18T14:56:41.141Z,29.70
2017-08-18T14:59:10.033Z,29.60
2017-08-18T15:01:37.652Z,29.60
2017-08-18T15:04:05.197Z,29.60
2017-08-18T15:06:32.800Z,29.70
2017-08-18T15:09:00.375Z,29.50
2017-08-18T15:11:28.349Z,29.50
2017-08-18T15:13:56.609Z,29.50
2017-08-18T15:16:24.951Z,29.60
2017-08-18T15:18:52.588Z,29.70
2017-08-18T15:21:21.181Z,29.50
2017-08-18T15:23:48.792Z,29.50
2017-08-18T15:26:16.687Z,29.50
2017-08-18T15:31:21.737Z,29.40
2017-08-18T15:33:49.425Z,29.40
2017-08-18T15:42:21.698Z,29.40
2017-08-18T15:47:43.993Z,29.40
2017-08-18T15:50:24.770Z,29.40
2017-08-18T15:53:04.487Z,29.40
2017-08-18T15:55:41.009Z,29.40
2017-08-18T16:04:16.002Z,29.30
2017-08-18T16:06:43.613Z,29.30
2017-08-18T16:09:11.209Z,29.30
2017-08-18T16:11:39.506Z,29.40
2017-08-18T16:14:07.167Z,29.30
2017-08-18T16:16:34.693Z,29.30
2017-08-18T16:19:02.246Z,29.20
2017-08-18T16:21:29.801Z,29.30
2017-08-18T16:23:57.361Z,29.30
2017-08-18T16:26:24.919Z,29.20
2017-08-18T16:28:52.436Z,29.10
2017-08-18T16:31:19.998Z,29.10
2017-08-18T16:33:47.512Z,29.00
2017-08-18T16:36:15.038Z,29.00
2017-08-18T16:38:42.580Z,28.80
2017-08-18T16:41:10.132Z,28.80
2017-08-18T16:43:37.689Z,28.80
2017-08-18T16:46:05.236Z,28.80
2017-08-18T16:48:33.560Z,28.90
2017-08-18T16:51:01.116Z,28.80
2017-08-18T16:53:28.681Z,28.80
2017-08-18T16:55:56.209Z,28.60
2017-08-18T16:58:23.728Z,28.60
2017-08-18T17:00:51.287Z,28.60
2017-08-18T17:03:18.803Z,28.50
2017-08-18T17:05:46.399Z,28.50
2017-08-18T17:08:13.914Z,28.40
2017-08-18T17:10:41.428Z,28.50
2017-08-18T17:13:09.001Z,28.40
2017-08-18T17:15:36.509Z,28.30
2017-08-18T17:18:04.023Z,28.30
2017-08-18T17:20:31.627Z,28.30
2017-08-18T17:22:59.152Z,28.30
2017-08-18T17:25:26.761Z,28.10
2017-08-18T17:27:54.288Z,28.20
2017-08-18T17:30:21.880Z,28.10
2017-08-18T17:32:49.399Z,28.00
2017-08-18T17:35:16.903Z,28.00
2017-08-18T17:37:44.457Z,28.00
2017-08-18T17:40:11.975Z,27.90
2017-08-18T17:42:40.305Z,27.70
2017-08-18T17:45:07.818Z,27.70
2017-08-18T17:47:35.332Z,27.60
2017-08-18T17:50:02.915Z,27.50
2017-08-18T17:52:30.436Z,27.60
2017-08-18T17:54:57.966Z,27.60
2017-08-18T17:57:25.523Z,27.60
2017-08-18T17:59:53.816Z,27.50
2017-08-18T18:02:21.345Z,27.40
2017-08-18T18:04:49.667Z,27.30
2017-08-18T18:07:17.179Z,27.30
2017-08-18T18:09:45.493Z,27.30
2017-08-18T18:12:13.016Z,27.30
2017-08-18T18:14:41.310Z,27.20
2017-08-18T18:17:09.643Z,27.00
2017-08-18T18:19:37.165Z,26.90
2017-08-18T18:22:04.675Z,26.70
2017-08-18T18:24:32.224Z,26.60
2017-08-18T18:26:59.776Z,26.40
2017-08-18T18:29:27.324Z,26.20
2017-08-18T18:31:54.879Z,26.20
2017-08-18T18:34:22.393Z,26.10
2017-08-18T18:36:50.675Z,25.90
2017-08-18T18:39:19.037Z,25.70
2017-08-18T18:41:46.564Z,25.70
2017-08-18T18:44:14.109Z,25.60
2017-08-18T18:46:41.671Z,25.70
2017-08-18T18:49:09.193Z,26.00
2017-08-18T18:51:37.479Z,26.00
2017-08-18T18:54:05.036Z,26.00
2017-08-18T18:56:33.319Z,25.70
2017-08-18T18:59:00.935Z,25.60
2017-08-18T19:01:28.448Z,25.00
2017-08-18T19:03:56.040Z,24.40
2017-08-18T19:06:23.611Z,23.80
2017-08-18T19:08:51.133Z,23.40
2017-08-18T19:11:18.652Z,22.90
2017-08-18T19:13:46.220Z,21.70
2017-08-18T19:16:14.552Z,20.10
2017-08-18T19:18:42.088Z,20.00
2017-08-18T19:21:09.673Z,19.50
2017-08-18T19:23:37.212Z,19.30
2017-08-18T19:26:04.775Z,19.20
2017-08-18T19:28:32.365Z,19.20
2017-08-18T19:30:59.900Z,19.30
2017-08-18T19:33:27.456Z,19.40
2017-08-18T19:35:54.976Z,19.50
2017-08-18T19:38:22.532Z,19.70
2017-08-18T19:40:50.052Z,19.70
2017-08-18T19:43:17.595Z,19.60
2017-08-18T19:45:45.121Z,19.70
2017-08-18T19:48:12.696Z,19.80
2017-08-18T19:50:40.987Z,19.70
2017-08-18T19:53:08.532Z,19.70
2017-08-18T19:55:36.812Z,19.70
2017-08-18T19:58:04.357Z,19.60
2017-08-18T20:00:31.896Z,19.70
2017-08-18T20:02:59.407Z,19.60
2017-08-18T20:05:26.999Z,19.70
2017-08-18T20:07:54.507Z,19.90
2017-08-18T20:10:22.788Z,20.00
2017-08-18T20:12:51.104Z,20.10
2017-08-18T20:15:18.647Z,20.00
2017-08-18T20:17:46.187Z,20.00
2017-08-18T20:20:14.477Z,20.10
2017-08-18T20:22:42.020Z,20.00
2017-08-18T20:25:10.331Z,19.70
2017-08-18T20:27:37.875Z,19.60
2017-08-18T20:30:05.430Z,19.50
2017-08-18T20:32:32.948Z,19.70
2017-08-18T20:35:00.498Z,19.70
2017-08-18T20:37:28.009Z,19.90
2017-08-18T20:39:56.333Z,19.60
2017-08-18T20:42:23.849Z,19.60
2017-08-18T20:44:51.399Z,19.30
2017-08-18T20:47:19.756Z,19.20
2017-08-18T20:49:47.267Z,19.20
2017-08-18T20:52:14.780Z,19.50
2017-08-18T20:54:42.332Z,19.40
2017-08-18T20:57:09.849Z,19.30
2017-08-18T20:59:37.391Z,19.40
2017-08-18T21:02:04.978Z,19.20
2017-08-18T21:04:32.531Z,18.90
2017-08-18T21:07:00.124Z,18.80
2017-08-18T21:09:27.731Z,19.00
2017-08-18T21:11:55.246Z,19.00
2017-08-18T21:14:22.799Z,19.20
2017-08-18T21:16:50.536Z,19.20
2017-08-18T21:19:18.139Z,19.20
2017-08-18T21:21:45.666Z,19.30
2017-08-18T21:24:13.192Z,19.40
2017-08-18T21:26:41.501Z,19.50
2017-08-18T21:29:09.051Z,19.50
2017-08-18T21:31:36.599Z,19.60
2017-08-18T21:34:04.118Z,19.60
2017-08-18T21:36:31.685Z,19.70
2017-08-18T21:38:59.217Z,19.60
2017-08-18T21:41:26.758Z,19.60
2017-08-18T21:43:54.324Z,19.70
2017-08-18T21:46:21.857Z,19.60
2017-08-18T21:48:49.384Z,19.60
2017-08-18T21:51:17.272Z,19.50
2017-08-18T21:53:45.690Z,19.20
2017-08-18T21:56:13.209Z,19.10
2017-08-18T21:58:41.528Z,19.30
2017-08-18T22:01:09.138Z,19.20
2017-08-18T22:03:37.433Z,19.30
2017-08-18T22:06:05.717Z,19.40
2017-08-18T22:08:33.274Z,19.40
2017-08-18T22:11:00.836Z,19.60
2017-08-18T22:13:28.345Z,19.30
2017-08-18T22:15:55.858Z,19.20
2017-08-18T22:18:23.409Z,19.30
2017-08-18T22:20:50.942Z,19.40
2017-08-18T22:23:18.487Z,19.50
2017-08-18T22:25:46.021Z,19.30
2017-08-18T22:28:13.771Z,19.40
2017-08-18T22:30:41.311Z,19.30
2017-08-18T22:33:09.622Z,19.40
2017-08-18T22:35:37.212Z,19.30
2017-08-18T22:38:04.734Z,19.40
2017-08-18T22:40:32.263Z,19.40
2017-08-18T22:43:00.592Z,19.30
2017-08-18T22:45:28.128Z,19.20
2017-08-18T22:47:55.707Z,19.20
2017-08-18T22:50:23.335Z,19.30
2017-08-18T22:52:50.900Z,19.30
2017-08-18T22:55:18.416Z,19.30
2017-08-18T22:57:45.936Z,19.20
2017-08-18T23:00:13.515Z,19.10
2017-08-18T23:02:41.411Z,19.10
2017-08-18T23:05:09.177Z,19.20
2017-08-18T23:07:36.732Z,19.20
2017-08-18T23:10:04.251Z,19.30
2017-08-18T23:12:31.764Z,19.30
2017-08-18T23:15:00.097Z,19.30
2017-08-18T23:17:27.616Z,19.30
2017-08-18T23:19:55.948Z,19.30
2017-08-18T23:22:23.531Z,19.30
2017-08-18T23:24:51.106Z,19.30
2017-08-18T23:27:18.624Z,19.20
2017-08-18T23:29:46.247Z,19.20
2017-08-18T23:32:14.588Z,19.30
2017-08-18T23:34:42.103Z,19.30
2017-08-18T23:37:09.612Z,19.40
2017-08-18T23:39:37.145Z,19.30
2017-08-18T23:42:04.664Z,19.10
2017-08-18T23:44:33.023Z,19.10
2017-08-18T23:47:00.538Z,19.00
2017-08-18T23:49:28.051Z,19.20
2017-08-18T23:51:56.397Z,18.90
2017-08-18T23:54:23.912Z,18.80
2017-08-18T23:56:51.467Z,18.90
2017-08-18T23:59:19.048Z,18.80
